This is the latest recevied weather packets stored in our database for station/object DB0LHR-6. If no packets are shown the sender has not sent any weather packets the latest 10 day(s).
| Time | Temp. | Humidity | Pressure | Rain* | Wind** | Luminosity | Snow |
|---|---|---|---|---|---|---|---|
| 1777983376 | 16.67° C | 72% | 1009 hPa | 0 mm | - | - | - |
| 1777982476 | 16.67° C | 72% | 1009 hPa | 0 mm | - | - | - |
| 1777981576 | 16.11° C | 73% | 1009 hPa | 0 mm | - | - | - |
| 1777980675 | 16.11° C | 75% | 1009 hPa | 0 mm | - | - | - |
| 1777979776 | 16.11° C | 73% | 1009 hPa | 0 mm | - | - | - |
| 1777978876 | 16.11° C | 72% | 1009 hPa | 0 mm | - | - | - |
| 1777977976 | 16.11° C | 69% | 1009 hPa | 0 mm | - | - | - |
| 1777977075 | 16.67° C | 68% | 1009 hPa | 0 mm | - | - | - |
| 1777976176 | 16.67° C | 66% | 1009 hPa | 0 mm | - | - | - |
| 1777975275 | 16.67° C | 65% | 1009 hPa | 0 mm | - | - | - |
| 1777974375 | 17.22° C | 64% | 1009 hPa | 0 mm | - | - | - |
| 1777973475 | 17.78° C | 61% | 1009 hPa | 0 mm | - | - | - |
| 1777972576 | 17.78° C | 65% | 1009 hPa | 0 mm | - | - | - |
| 1777971676 | 17.22° C | 69% | 1009 hPa | 0 mm | - | - | - |
| 1777970775 | 16.67° C | 77% | 1010 hPa | 0 mm | - | - | - |
| 1777969875 | 16.11° C | 85% | 1010 hPa | 0 mm | - | - | - |
| 1777968975 | 15° C | 87% | 1010 hPa | 0 mm | - | - | - |
| 1777968075 | 14.44° C | 87% | 1010 hPa | 0 mm | - | - | - |
| 1777967175 | 13.89° C | 87% | 1010 hPa | 0 mm | - | - | - |
| 1777966275 | 13.89° C | 86% | 1010 hPa | 0 mm | - | - | - |
| 1777965375 | 13.89° C | 86% | 1010 hPa | 0 mm | - | - | - |
| 1777964475 | 13.89° C | 87% | 1010 hPa | 0 mm | - | - | - |
| 1777963575 | 13.33° C | 88% | 1010 hPa | 0 mm | - | - | - |
| 1777962675 | 13.33° C | 89% | 1010 hPa | 0 mm | - | - | - |
| 1777961775 | 12.78° C | 89% | 1010 hPa | 0 mm | - | - | - |
* Rain latest 24 hours (hover to see other rain measurements)
** Current wind speed in m/s (hover to see current wind gust speed)